sensor_id;sensor_type;location;lat;lon;timestamp;pressure;altitude;pressure_sealevel;temperature;humidity
9415;BME280;4746;35.664;139.738;2023-07-02T00:00:18;99659.16;;;33.41;44.83
9415;BME280;4746;35.664;139.738;2023-07-02T00:02:46;99650.72;;;33.55;44.09
9415;BME280;4746;35.664;139.738;2023-07-02T00:05:14;99656.53;;;33.68;43.90
9415;BME280;4746;35.664;139.738;2023-07-02T00:07:41;99659.59;;;33.73;43.50
9415;BME280;4746;35.664;139.738;2023-07-02T00:10:18;99658.41;;;33.85;43.45
9415;BME280;4746;35.664;139.738;2023-07-02T00:13:29;99656.66;;;33.93;43.60
9415;BME280;4746;35.664;139.738;2023-07-02T00:16:44;99655.41;;;33.97;43.53
9415;BME280;4746;35.664;139.738;2023-07-02T00:19:27;99656.94;;;34.00;43.17
9415;BME280;4746;35.664;139.738;2023-07-02T00:21:55;99664.34;;;34.06;42.58
9415;BME280;4746;35.664;139.738;2023-07-02T00:24:33;99660.16;;;34.21;42.32
9415;BME280;4746;35.664;139.738;2023-07-02T00:27:01;99669.44;;;34.17;42.88
9415;BME280;4746;35.664;139.738;2023-07-02T00:29:29;99658.22;;;34.23;42.27
9415;BME280;4746;35.664;139.738;2023-07-02T00:31:56;99656.75;;;34.28;42.95
9415;BME280;4746;35.664;139.738;2023-07-02T00:34:24;99659.78;;;34.33;41.94
9415;BME280;4746;35.664;139.738;2023-07-02T00:36:53;99657.53;;;34.38;42.17
9415;BME280;4746;35.664;139.738;2023-07-02T00:39:23;99658.72;;;34.44;42.24
9415;BME280;4746;35.664;139.738;2023-07-02T00:41:51;99666.25;;;34.48;41.83
9415;BME280;4746;35.664;139.738;2023-07-02T00:44:18;99662.47;;;34.51;42.01
9415;BME280;4746;35.664;139.738;2023-07-02T00:46:46;99659.66;;;34.52;41.47
9415;BME280;4746;35.664;139.738;2023-07-02T00:49:13;99663.88;;;34.45;41.50
9415;BME280;4746;35.664;139.738;2023-07-02T00:51:47;99662.78;;;34.48;41.74
9415;BME280;4746;35.664;139.738;2023-07-02T00:54:15;99664.44;;;34.49;41.17
9415;BME280;4746;35.664;139.738;2023-07-02T00:56:43;99651.56;;;34.54;42.00
9415;BME280;4746;35.664;139.738;2023-07-02T00:59:12;99660.38;;;34.54;41.79
9415;BME280;4746;35.664;139.738;2023-07-02T01:01:40;99654.06;;;34.55;42.06
9415;BME280;4746;35.664;139.738;2023-07-02T01:04:08;99647.88;;;34.55;41.30
9415;BME280;4746;35.664;139.738;2023-07-02T01:06:38;99650.63;;;34.63;42.01
9415;BME280;4746;35.664;139.738;2023-07-02T01:09:09;99650.28;;;34.65;41.17
9415;BME280;4746;35.664;139.738;2023-07-02T01:11:44;99649.19;;;34.68;41.20
9415;BME280;4746;35.664;139.738;2023-07-02T01:14:48;99649.03;;;34.69;41.27
9415;BME280;4746;35.664;139.738;2023-07-02T01:17:14;99645.09;;;34.56;41.08
9415;BME280;4746;35.664;139.738;2023-07-02T01:19:56;99634.16;;;34.50;41.51
9415;BME280;4746;35.664;139.738;2023-07-02T01:22:29;99645.13;;;34.47;42.23
9415;BME280;4746;35.664;139.738;2023-07-02T01:24:58;99644.22;;;34.38;41.94
9415;BME280;4746;35.664;139.738;2023-07-02T01:27:29;99649.75;;;34.45;41.79
9415;BME280;4746;35.664;139.738;2023-07-02T01:29:57;99647.88;;;34.55;42.10
9415;BME280;4746;35.664;139.738;2023-07-02T01:32:25;99652.28;;;34.63;41.12
9415;BME280;4746;35.664;139.738;2023-07-02T01:34:52;99641.31;;;34.66;41.67
9415;BME280;4746;35.664;139.738;2023-07-02T01:37:20;99644.34;;;34.71;41.47
9415;BME280;4746;35.664;139.738;2023-07-02T01:39:51;99651.72;;;34.77;40.98
9415;BME280;4746;35.664;139.738;2023-07-02T01:42:20;99641.16;;;34.85;41.00
9415;BME280;4746;35.664;139.738;2023-07-02T01:44:49;99642.81;;;34.86;40.84
9415;BME280;4746;35.664;139.738;2023-07-02T01:47:18;99641.97;;;34.86;40.52
9415;BME280;4746;35.664;139.738;2023-07-02T01:49:46;99643.13;;;34.83;40.83
9415;BME280;4746;35.664;139.738;2023-07-02T01:52:14;99635.53;;;34.88;41.38
9415;BME280;4746;35.664;139.738;2023-07-02T01:54:41;99635.53;;;34.88;41.49
9415;BME280;4746;35.664;139.738;2023-07-02T01:57:09;99651.50;;;34.88;41.15
9415;BME280;4746;35.664;139.738;2023-07-02T01:59:37;99641.66;;;34.89;41.34
9415;BME280;4746;35.664;139.738;2023-07-02T02:02:04;99640.16;;;34.86;41.43
9415;BME280;4746;35.664;139.738;2023-07-02T02:04:32;99646.72;;;34.74;41.86
9415;BME280;4746;35.664;139.738;2023-07-02T02:06:59;99644.06;;;34.74;41.25
9415;BME280;4746;35.664;139.738;2023-07-02T02:09:27;99641.03;;;34.69;41.51
9415;BME280;4746;35.664;139.738;2023-07-02T02:12:03;99640.78;;;34.80;41.59
9415;BME280;4746;35.664;139.738;2023-07-02T02:14:31;99642.28;;;34.83;42.00
9415;BME280;4746;35.664;139.738;2023-07-02T02:16:59;99638.84;;;34.90;41.55
9415;BME280;4746;35.664;139.738;2023-07-02T02:19:26;99627.19;;;34.91;40.92
9415;BME280;4746;35.664;139.738;2023-07-02T02:21:54;99636.88;;;34.92;40.64
9415;BME280;4746;35.664;139.738;2023-07-02T02:24:21;99621.06;;;34.91;41.07
9415;BME280;4746;35.664;139.738;2023-07-02T02:26:49;99625.16;;;34.85;41.56
9415;BME280;4746;35.664;139.738;2023-07-02T02:29:16;99615.03;;;34.89;42.40
9415;BME280;4746;35.664;139.738;2023-07-02T02:31:44;99617.06;;;34.95;41.82
9415;BME280;4746;35.664;139.738;2023-07-02T02:34:12;99624.75;;;34.98;42.09
9415;BME280;4746;35.664;139.738;2023-07-02T02:36:39;99615.31;;;35.03;42.52
9415;BME280;4746;35.664;139.738;2023-07-02T02:39:07;99616.38;;;35.10;42.38
9415;BME280;4746;35.664;139.738;2023-07-02T02:41:34;99617.03;;;35.12;42.06
9415;BME280;4746;35.664;139.738;2023-07-02T02:44:02;99613.72;;;35.10;42.78
9415;BME280;4746;35.664;139.738;2023-07-02T02:46:30;99611.94;;;35.19;42.19
9415;BME280;4746;35.664;139.738;2023-07-02T02:48:58;99610.44;;;35.24;42.49
9415;BME280;4746;35.664;139.738;2023-07-02T02:51:25;99600.28;;;35.28;42.45
9415;BME280;4746;35.664;139.738;2023-07-02T02:53:53;99591.84;;;35.32;41.90
9415;BME280;4746;35.664;139.738;2023-07-02T02:56:20;99598.50;;;35.36;41.88
9415;BME280;4746;35.664;139.738;2023-07-02T02:58:48;99604.06;;;35.42;42.67
9415;BME280;4746;35.664;139.738;2023-07-02T03:01:19;99591.44;;;35.52;41.94
9415;BME280;4746;35.664;139.738;2023-07-02T03:03:46;99587.97;;;35.52;42.17
9415;BME280;4746;35.664;139.738;2023-07-02T03:06:14;99597.66;;;35.61;42.02
9415;BME280;4746;35.664;139.738;2023-07-02T03:08:42;99609.00;;;35.71;41.91
9415;BME280;4746;35.664;139.738;2023-07-02T03:11:10;99605.84;;;35.75;42.21
9415;BME280;4746;35.664;139.738;2023-07-02T03:13:38;99605.69;;;35.77;42.00
9415;BME280;4746;35.664;139.738;2023-07-02T03:16:10;99608.22;;;35.86;41.95
9415;BME280;4746;35.664;139.738;2023-07-02T03:18:38;99598.41;;;35.87;41.64
9415;BME280;4746;35.664;139.738;2023-07-02T03:21:06;99585.72;;;35.89;41.59
9415;BME280;4746;35.664;139.738;2023-07-02T03:23:33;99601.09;;;35.95;41.65
9415;BME280;4746;35.664;139.738;2023-07-02T03:26:01;99604.78;;;36.02;41.75
9415;BME280;4746;35.664;139.738;2023-07-02T03:28:28;99609.81;;;36.05;41.12
9415;BME280;4746;35.664;139.738;2023-07-02T03:30:56;99604.47;;;36.12;41.48
9415;BME280;4746;35.664;139.738;2023-07-02T03:33:24;99592.97;;;36.28;41.41
9415;BME280;4746;35.664;139.738;2023-07-02T03:35:55;99591.19;;;36.44;40.97
9415;BME280;4746;35.664;139.738;2023-07-02T03:38:23;99589.53;;;36.51;40.82
9415;BME280;4746;35.664;139.738;2023-07-02T03:40:51;99590.03;;;36.55;40.59
9415;BME280;4746;35.664;139.738;2023-07-02T03:43:18;99590.84;;;36.63;40.00
9415;BME280;4746;35.664;139.738;2023-07-02T03:45:46;99590.19;;;36.61;40.33
9415;BME280;4746;35.664;139.738;2023-07-02T03:48:13;99590.50;;;36.74;39.83
9415;BME280;4746;35.664;139.738;2023-07-02T03:50:41;99592.50;;;36.88;39.99
9415;BME280;4746;35.664;139.738;2023-07-02T03:53:08;99599.84;;;37.02;39.26
9415;BME280;4746;35.664;139.738;2023-07-02T03:55:37;99597.78;;;37.12;39.41
9415;BME280;4746;35.664;139.738;2023-07-02T03:58:05;99584.72;;;37.25;39.50
9415;BME280;4746;35.664;139.738;2023-07-02T04:00:33;99583.38;;;37.37;39.25
9415;BME280;4746;35.664;139.738;2023-07-02T04:03:01;99589.00;;;37.50;39.08
9415;BME280;4746;35.664;139.738;2023-07-02T04:05:29;99583.63;;;37.57;39.06
9415;BME280;4746;35.664;139.738;2023-07-02T04:07:56;99574.84;;;37.79;38.10
9415;BME280;4746;35.664;139.738;2023-07-02T04:10:24;99575.56;;;37.96;38.10
9415;BME280;4746;35.664;139.738;2023-07-02T04:12:54;99580.63;;;38.13;37.05
9415;BME280;4746;35.664;139.738;2023-07-02T04:15:22;99571.69;;;38.28;36.83
9415;BME280;4746;35.664;139.738;2023-07-02T04:17:51;99570.53;;;38.45;36.35
9415;BME280;4746;35.664;139.738;2023-07-02T04:20:20;99571.88;;;38.64;36.14
9415;BME280;4746;35.664;139.738;2023-07-02T04:22:48;99570.44;;;38.76;35.82
9415;BME280;4746;35.664;139.738;2023-07-02T04:25:16;99576.28;;;38.94;35.70
9415;BME280;4746;35.664;139.738;2023-07-02T04:27:44;99566.44;;;39.08;34.69
9415;BME280;4746;35.664;139.738;2023-07-02T04:30:13;99567.91;;;39.25;35.00
9415;BME280;4746;35.664;139.738;2023-07-02T04:32:41;99575.94;;;39.40;34.39
9415;BME280;4746;35.664;139.738;2023-07-02T04:35:09;99572.53;;;39.60;33.90
9415;BME280;4746;35.664;139.738;2023-07-02T04:37:40;99566.94;;;39.76;33.93
9415;BME280;4746;35.664;139.738;2023-07-02T04:40:08;99570.25;;;39.92;33.60
9415;BME280;4746;35.664;139.738;2023-07-02T04:42:41;99566.03;;;40.04;33.06
9415;BME280;4746;35.664;139.738;2023-07-02T04:45:15;99565.63;;;40.07;33.31
9415;BME280;4746;35.664;139.738;2023-07-02T04:47:45;99571.16;;;40.20;33.00
9415;BME280;4746;35.664;139.738;2023-07-02T04:50:13;99560.13;;;40.30;32.42
9415;BME280;4746;35.664;139.738;2023-07-02T04:52:40;99555.22;;;40.40;32.57
9415;BME280;4746;35.664;139.738;2023-07-02T04:55:08;99554.09;;;40.48;32.00
9415;BME280;4746;35.664;139.738;2023-07-02T04:57:37;99557.13;;;40.66;32.02
9415;BME280;4746;35.664;139.738;2023-07-02T05:00:05;99553.59;;;40.93;31.63
9415;BME280;4746;35.664;139.738;2023-07-02T05:02:33;99548.00;;;41.22;31.41
9415;BME280;4746;35.664;139.738;2023-07-02T05:05:00;99551.41;;;41.43;30.70
9415;BME280;4746;35.664;139.738;2023-07-02T05:07:28;99535.78;;;41.60;30.75
9415;BME280;4746;35.664;139.738;2023-07-02T05:09:57;99530.41;;;41.73;30.41
9415;BME280;4746;35.664;139.738;2023-07-02T05:12:25;99536.66;;;41.80;29.96
9415;BME280;4746;35.664;139.738;2023-07-02T05:14:52;99537.06;;;41.83;30.20
9415;BME280;4746;35.664;139.738;2023-07-02T05:17:20;99539.63;;;41.97;30.16
9415;BME280;4746;35.664;139.738;2023-07-02T05:19:47;99549.41;;;42.11;29.74
9415;BME280;4746;35.664;139.738;2023-07-02T05:22:15;99544.22;;;42.16;29.26
9415;BME280;4746;35.664;139.738;2023-07-02T05:24:42;99539.25;;;42.20;29.26
9415;BME280;4746;35.664;139.738;2023-07-02T05:27:10;99550.03;;;42.26;29.23
9415;BME280;4746;35.664;139.738;2023-07-02T05:29:38;99548.78;;;42.22;29.00
9415;BME280;4746;35.664;139.738;2023-07-02T05:32:06;99553.34;;;42.22;28.96
9415;BME280;4746;35.664;139.738;2023-07-02T05:34:34;99545.69;;;42.12;29.29
9415;BME280;4746;35.664;139.738;2023-07-02T05:37:01;99546.28;;;42.08;29.09
9415;BME280;4746;35.664;139.738;2023-07-02T05:39:29;99542.34;;;42.10;29.31
9415;BME280;4746;35.664;139.738;2023-07-02T05:41:57;99541.72;;;42.21;29.15
9415;BME280;4746;35.664;139.738;2023-07-02T05:44:24;99542.97;;;42.25;28.72
9415;BME280;4746;35.664;139.738;2023-07-02T05:46:52;99543.19;;;42.24;28.85
9415;BME280;4746;35.664;139.738;2023-07-02T05:49:19;99540.28;;;42.25;28.37
9415;BME280;4746;35.664;139.738;2023-07-02T05:51:47;99542.97;;;42.25;28.52
9415;BME280;4746;35.664;139.738;2023-07-02T05:54:14;99540.94;;;42.27;28.93
9415;BME280;4746;35.664;139.738;2023-07-02T05:56:42;99539.09;;;42.28;28.12
9415;BME280;4746;35.664;139.738;2023-07-02T05:59:09;99542.59;;;42.61;28.38
9415;BME280;4746;35.664;139.738;2023-07-02T06:01:38;99540.69;;;43.06;27.75
9415;BME280;4746;35.664;139.738;2023-07-02T06:04:05;99522.44;;;43.65;27.38
9415;BME280;4746;35.664;139.738;2023-07-02T06:06:33;99528.44;;;44.04;27.01
9415;BME280;4746;35.664;139.738;2023-07-02T06:09:00;99532.78;;;44.36;26.96
9415;BME280;4746;35.664;139.738;2023-07-02T06:11:27;99526.00;;;44.51;26.61
9415;BME280;4746;35.664;139.738;2023-07-02T06:13:55;99521.34;;;44.65;26.67
9415;BME280;4746;35.664;139.738;2023-07-02T06:16:23;99511.19;;;44.60;26.60
9415;BME280;4746;35.664;139.738;2023-07-02T06:18:51;99528.19;;;44.67;26.56
9415;BME280;4746;35.664;139.738;2023-07-02T06:21:19;99526.06;;;44.93;26.67
9415;BME280;4746;35.664;139.738;2023-07-02T06:23:47;99522.63;;;45.04;26.63
9415;BME280;4746;35.664;139.738;2023-07-02T06:26:15;99520.81;;;45.16;26.48
9415;BME280;4746;35.664;139.738;2023-07-02T06:28:43;99518.63;;;45.25;26.26
9415;BME280;4746;35.664;139.738;2023-07-02T06:31:11;99529.91;;;44.80;26.46
9415;BME280;4746;35.664;139.738;2023-07-02T06:33:40;99538.94;;;43.88;27.67
9415;BME280;4746;35.664;139.738;2023-07-02T06:36:09;99520.94;;;43.25;28.76
9415;BME280;4746;35.664;139.738;2023-07-02T06:38:37;99521.28;;;43.85;28.55
9415;BME280;4746;35.664;139.738;2023-07-02T06:41:05;99541.44;;;45.64;25.98
9415;BME280;4746;35.664;139.738;2023-07-02T06:43:34;99521.25;;;46.60;25.04
9415;BME280;4746;35.664;139.738;2023-07-02T06:46:02;99514.47;;;47.31;24.44
9415;BME280;4746;35.664;139.738;2023-07-02T06:48:30;99514.72;;;47.96;23.76
9415;BME280;4746;35.664;139.738;2023-07-02T06:50:57;99521.56;;;48.81;23.50
9415;BME280;4746;35.664;139.738;2023-07-02T06:53:25;99527.25;;;49.55;22.54
9415;BME280;4746;35.664;139.738;2023-07-02T06:55:53;99523.28;;;49.89;22.46
9415;BME280;4746;35.664;139.738;2023-07-02T06:58:20;99501.66;;;50.09;22.25
9415;BME280;4746;35.664;139.738;2023-07-02T07:00:49;99528.41;;;50.74;21.28
9415;BME280;4746;35.664;139.738;2023-07-02T07:03:17;99538.13;;;51.48;20.74
9415;BME280;4746;35.664;139.738;2023-07-02T07:05:45;99536.56;;;51.76;20.32
9415;BME280;4746;35.664;139.738;2023-07-02T07:08:12;99537.97;;;51.79;19.88
9415;BME280;4746;35.664;139.738;2023-07-02T07:10:41;99553.28;;;51.90;19.66
9415;BME280;4746;35.664;139.738;2023-07-02T07:13:13;99539.69;;;50.83;20.37
9415;BME280;4746;35.664;139.738;2023-07-02T07:15:41;99530.28;;;50.06;21.02
9415;BME280;4746;35.664;139.738;2023-07-02T07:18:09;99520.63;;;50.20;20.77
9415;BME280;4746;35.664;139.738;2023-07-02T07:20:39;99549.44;;;49.63;21.30
9415;BME280;4746;35.664;139.738;2023-07-02T07:23:07;99524.81;;;47.57;23.04
9415;BME280;4746;35.664;139.738;2023-07-02T07:25:35;99509.09;;;46.62;23.94
9415;BME280;4746;35.664;139.738;2023-07-02T07:28:03;99508.16;;;45.28;25.22
9415;BME280;4746;35.664;139.738;2023-07-02T07:30:31;99536.28;;;44.18;26.88
9415;BME280;4746;35.664;139.738;2023-07-02T07:32:58;99522.31;;;43.41;28.08
9415;BME280;4746;35.664;139.738;2023-07-02T07:35:26;99543.41;;;43.06;28.20
9415;BME280;4746;35.664;139.738;2023-07-02T07:37:53;99509.50;;;43.73;27.77
9415;BME280;4746;35.664;139.738;2023-07-02T07:40:21;99500.47;;;45.43;26.44
9415;BME280;4746;35.664;139.738;2023-07-02T07:42:48;99510.63;;;46.93;24.19
9415;BME280;4746;35.664;139.738;2023-07-02T07:45:16;99496.72;;;47.79;23.01
9415;BME280;4746;35.664;139.738;2023-07-02T07:47:43;99499.84;;;48.15;22.51
9415;BME280;4746;35.664;139.738;2023-07-02T07:50:11;99521.53;;;47.83;22.49
9415;BME280;4746;35.664;139.738;2023-07-02T07:52:42;99514.47;;;47.31;23.15
9415;BME280;4746;35.664;139.738;2023-07-02T07:55:10;99524.44;;;46.68;23.60
9415;BME280;4746;35.664;139.738;2023-07-02T07:57:38;99539.75;;;44.98;25.41
9415;BME280;4746;35.664;139.738;2023-07-02T08:00:06;99546.16;;;44.00;26.65
9415;BME280;4746;35.664;139.738;2023-07-02T08:02:38;99550.88;;;43.11;27.59
9415;BME280;4746;35.664;139.738;2023-07-02T08:05:06;99563.34;;;42.41;28.47
9415;BME280;4746;35.664;139.738;2023-07-02T08:07:34;99566.50;;;41.85;28.47
9415;BME280;4746;35.664;139.738;2023-07-02T08:10:02;99559.22;;;41.32;29.84
9415;BME280;4746;35.664;139.738;2023-07-02T08:12:31;99575.81;;;40.74;30.43
9415;BME280;4746;35.664;139.738;2023-07-02T08:14:58;99562.75;;;39.88;31.25
9415;BME280;4746;35.664;139.738;2023-07-02T08:17:26;99611.84;;;39.24;32.08
9415;BME280;4746;35.664;139.738;2023-07-02T08:19:53;99584.25;;;38.87;32.62
9415;BME280;4746;35.664;139.738;2023-07-02T08:22:21;99587.84;;;38.80;32.78
9415;BME280;4746;35.664;139.738;2023-07-02T08:24:48;99582.06;;;38.68;33.59
9415;BME280;4746;35.664;139.738;2023-07-02T08:27:19;99582.38;;;38.88;32.92
9415;BME280;4746;35.664;139.738;2023-07-02T08:29:48;99582.88;;;39.05;32.59
9415;BME280;4746;35.664;139.738;2023-07-02T08:32:16;99572.28;;;39.12;33.05
9415;BME280;4746;35.664;139.738;2023-07-02T08:34:44;99568.66;;;39.48;32.01
9415;BME280;4746;35.664;139.738;2023-07-02T08:37:11;99572.31;;;39.62;32.21
9415;BME280;4746;35.664;139.738;2023-07-02T08:39:40;99569.72;;;39.39;32.13
9415;BME280;4746;35.664;139.738;2023-07-02T08:42:07;99569.25;;;38.93;32.82
9415;BME280;4746;35.664;139.738;2023-07-02T08:44:35;99583.81;;;38.61;33.19
9415;BME280;4746;35.664;139.738;2023-07-02T08:47:05;99589.72;;;39.51;32.15
9415;BME280;4746;35.664;139.738;2023-07-02T08:49:33;99602.94;;;40.17;31.56
9415;BME280;4746;35.664;139.738;2023-07-02T08:52:00;99609.81;;;40.05;31.47
9415;BME280;4746;35.664;139.738;2023-07-02T08:54:27;99595.66;;;39.03;32.73
9415;BME280;4746;35.664;139.738;2023-07-02T08:56:55;99593.81;;;38.23;33.74
9415;BME280;4746;35.664;139.738;2023-07-02T08:59:23;99581.66;;;37.52;35.30
9415;BME280;4746;35.664;139.738;2023-07-02T09:01:53;99595.81;;;37.06;35.94
9415;BME280;4746;35.664;139.738;2023-07-02T09:04:24;99590.50;;;36.66;36.21
9415;BME280;4746;35.664;139.738;2023-07-02T09:07:09;99581.31;;;36.37;36.62
9415;BME280;4746;35.664;139.738;2023-07-02T09:09:50;99584.44;;;35.93;37.54
9415;BME280;4746;35.664;139.738;2023-07-02T09:12:29;99607.88;;;35.40;38.72
9415;BME280;4746;35.664;139.738;2023-07-02T09:15:02;99591.94;;;34.97;39.67
9415;BME280;4746;35.664;139.738;2023-07-02T09:17:36;99583.38;;;34.61;40.12
9415;BME280;4746;35.664;139.738;2023-07-02T09:20:06;99584.88;;;34.46;40.57
9415;BME280;4746;35.664;139.738;2023-07-02T09:22:36;99586.34;;;34.23;41.27
9415;BME280;4746;35.664;139.738;2023-07-02T09:25:06;99588.59;;;34.00;41.67
9415;BME280;4746;35.664;139.738;2023-07-02T09:27:40;99594.91;;;33.82;42.01
9415;BME280;4746;35.664;139.738;2023-07-02T09:30:16;99596.09;;;33.70;42.41
9415;BME280;4746;35.664;139.738;2023-07-02T09:32:45;99615.06;;;33.48;43.07
9415;BME280;4746;35.664;139.738;2023-07-02T09:35:13;99597.09;;;33.33;43.55
9415;BME280;4746;35.664;139.738;2023-07-02T09:37:46;99589.44;;;33.20;44.07
9415;BME280;4746;35.664;139.738;2023-07-02T09:40:16;99593.13;;;33.01;44.42
9415;BME280;4746;35.664;139.738;2023-07-02T09:42:47;99592.44;;;32.99;44.38
9415;BME280;4746;35.664;139.738;2023-07-02T09:45:19;99598.75;;;32.88;44.81
9415;BME280;4746;35.664;139.738;2023-07-02T09:47:52;99602.81;;;32.83;44.61
9415;BME280;4746;35.664;139.738;2023-07-02T09:50:23;99599.47;;;32.81;44.72
9415;BME280;4746;35.664;139.738;2023-07-02T09:52:51;99600.59;;;32.69;44.53
9415;BME280;4746;35.664;139.738;2023-07-02T09:55:21;99620.19;;;32.49;44.78
9415;BME280;4746;35.664;139.738;2023-07-02T09:57:50;99602.44;;;32.31;45.30
9415;BME280;4746;35.664;139.738;2023-07-02T10:00:17;99592.78;;;32.20;45.90
9415;BME280;4746;35.664;139.738;2023-07-02T10:02:51;99600.56;;;31.93;46.28
9415;BME280;4746;35.664;139.738;2023-07-02T10:05:33;99583.09;;;31.81;46.43
9415;BME280;4746;35.664;139.738;2023-07-02T10:08:21;99593.13;;;31.78;46.55
9415;BME280;4746;35.664;139.738;2023-07-02T10:10:53;99588.56;;;31.80;46.80
9415;BME280;4746;35.664;139.738;2023-07-02T10:13:28;99599.72;;;31.83;46.61
9415;BME280;4746;35.664;139.738;2023-07-02T10:16:07;99598.19;;;31.81;46.68
9415;BME280;4746;35.664;139.738;2023-07-02T10:18:35;99613.91;;;31.73;46.65
9415;BME280;4746;35.664;139.738;2023-07-02T10:21:17;99617.13;;;31.76;46.61
9415;BME280;4746;35.664;139.738;2023-07-02T10:23:45;99613.06;;;31.63;47.14
9415;BME280;4746;35.664;139.738;2023-07-02T10:26:18;99628.97;;;31.63;46.95
9415;BME280;4746;35.664;139.738;2023-07-02T10:29:01;99623.91;;;31.60;47.00
9415;BME280;4746;35.664;139.738;2023-07-02T10:31:29;99624.28;;;31.46;47.39
9415;BME280;4746;35.664;139.738;2023-07-02T10:33:57;99626.34;;;31.43;47.66
9415;BME280;4746;35.664;139.738;2023-07-02T10:36:26;99630.25;;;31.48;47.61
9415;BME280;4746;35.664;139.738;2023-07-02T10:38:53;99632.47;;;31.43;48.09
9415;BME280;4746;35.664;139.738;2023-07-02T10:41:30;99621.88;;;31.43;48.24
9415;BME280;4746;35.664;139.738;2023-07-02T10:44:10;99626.63;;;31.49;47.75
9415;BME280;4746;35.664;139.738;2023-07-02T10:46:46;99633.38;;;31.53;47.29
9415;BME280;4746;35.664;139.738;2023-07-02T10:49:18;99638.81;;;31.52;47.44
9415;BME280;4746;35.664;139.738;2023-07-02T10:52:00;99644.97;;;31.52;47.78
9415;BME280;4746;35.664;139.738;2023-07-02T10:54:46;99648.94;;;31.47;47.98
9415;BME280;4746;35.664;139.738;2023-07-02T10:57:17;99644.47;;;31.38;48.13
9415;BME280;4746;35.664;139.738;2023-07-02T10:59:49;99658.53;;;31.38;47.97
9415;BME280;4746;35.664;139.738;2023-07-02T11:02:17;99646.81;;;31.41;47.92
9415;BME280;4746;35.664;139.738;2023-07-02T11:04:45;99650.00;;;31.35;47.92
9415;BME280;4746;35.664;139.738;2023-07-02T11:07:15;99663.25;;;31.35;48.55
9415;BME280;4746;35.664;139.738;2023-07-02T11:09:52;99665.06;;;31.34;48.34
9415;BME280;4746;35.664;139.738;2023-07-02T11:12:29;99650.28;;;31.32;48.07
9415;BME280;4746;35.664;139.738;2023-07-02T11:17:35;99665.28;;;31.22;48.94
9415;BME280;4746;35.664;139.738;2023-07-02T11:20:04;99658.56;;;31.18;48.93
9415;BME280;4746;35.664;139.738;2023-07-02T11:22:33;99660.25;;;31.19;49.17
9415;BME280;4746;35.664;139.738;2023-07-02T11:25:17;99653.56;;;31.24;49.33
9415;BME280;4746;35.664;139.738;2023-07-02T11:27:45;99672.47;;;31.10;49.56
9415;BME280;4746;35.664;139.738;2023-07-02T11:30:13;99664.09;;;31.15;49.60
9415;BME280;4746;35.664;139.738;2023-07-02T11:32:55;99680.47;;;31.20;49.64
9415;BME280;4746;35.664;139.738;2023-07-02T11:35:34;99674.00;;;31.13;49.67
9415;BME280;4746;35.664;139.738;2023-07-02T11:38:03;99689.84;;;31.03;50.30
9415;BME280;4746;35.664;139.738;2023-07-02T11:40:30;99686.59;;;31.00;50.61
9415;BME280;4746;35.664;139.738;2023-07-02T11:42:58;99679.16;;;30.94;50.48
9415;BME280;4746;35.664;139.738;2023-07-02T11:45:25;99686.50;;;30.91;50.93
9415;BME280;4746;35.664;139.738;2023-07-02T11:47:52;99686.66;;;30.89;51.23
9415;BME280;4746;35.664;139.738;2023-07-02T11:50:20;99689.00;;;30.92;51.11
9415;BME280;4746;35.664;139.738;2023-07-02T11:52:47;99693.84;;;30.98;51.28
9415;BME280;4746;35.664;139.738;2023-07-02T11:55:15;99689.41;;;30.99;51.55
9415;BME280;4746;35.664;139.738;2023-07-02T11:57:42;99690.22;;;30.99;51.56
9415;BME280;4746;35.664;139.738;2023-07-02T12:00:10;99690.47;;;30.96;52.30
9415;BME280;4746;35.664;139.738;2023-07-02T12:02:38;99690.97;;;30.90;52.22
9415;BME280;4746;35.664;139.738;2023-07-02T12:05:06;99693.03;;;30.87;52.92
9415;BME280;4746;35.664;139.738;2023-07-02T12:07:35;99695.31;;;30.91;52.98
9415;BME280;4746;35.664;139.738;2023-07-02T12:10:02;99696.84;;;30.94;53.28
9415;BME280;4746;35.664;139.738;2023-07-02T12:12:30;99710.19;;;30.92;53.78
9415;BME280;4746;35.664;139.738;2023-07-02T12:14:57;99706.84;;;30.90;54.25
9415;BME280;4746;35.664;139.738;2023-07-02T12:17:25;99697.47;;;30.86;53.95
9415;BME280;4746;35.664;139.738;2023-07-02T12:19:52;99696.28;;;30.90;53.99
9415;BME280;4746;35.664;139.738;2023-07-02T12:22:20;99696.00;;;30.93;53.79
9415;BME280;4746;35.664;139.738;2023-07-02T12:24:49;99697.97;;;30.91;54.58
9415;BME280;4746;35.664;139.738;2023-07-02T12:27:17;99701.22;;;30.84;55.05
9415;BME280;4746;35.664;139.738;2023-07-02T12:29:44;99691.50;;;30.84;55.60
9415;BME280;4746;35.664;139.738;2023-07-02T12:32:12;99697.28;;;30.78;55.68
9415;BME280;4746;35.664;139.738;2023-07-02T12:34:39;99706.69;;;30.71;56.09
9415;BME280;4746;35.664;139.738;2023-07-02T12:37:07;99701.53;;;30.70;56.36
9415;BME280;4746;35.664;139.738;2023-07-02T12:39:34;99702.38;;;30.70;56.98
9415;BME280;4746;35.664;139.738;2023-07-02T12:42:02;99702.81;;;30.75;56.86
9415;BME280;4746;35.664;139.738;2023-07-02T12:44:30;99691.72;;;30.81;56.81
9415;BME280;4746;35.664;139.738;2023-07-02T12:46:57;99693.69;;;30.79;57.17
9415;BME280;4746;35.664;139.738;2023-07-02T12:49:24;99697.59;;;30.85;57.17
9415;BME280;4746;35.664;139.738;2023-07-02T12:51:52;99694.13;;;30.84;57.51
9415;BME280;4746;35.664;139.738;2023-07-02T12:54:19;99691.72;;;30.81;58.21
9415;BME280;4746;35.664;139.738;2023-07-02T12:56:47;99696.34;;;30.79;58.38
9415;BME280;4746;35.664;139.738;2023-07-02T12:59:15;99703.28;;;30.80;57.90
9415;BME280;4746;35.664;139.738;2023-07-02T13:01:43;99697.75;;;30.83;58.23
9415;BME280;4746;35.664;139.738;2023-07-02T13:04:11;99691.94;;;30.89;58.11
9415;BME280;4746;35.664;139.738;2023-07-02T13:06:38;99704.81;;;30.83;58.69
9415;BME280;4746;35.664;139.738;2023-07-02T13:09:10;99696.34;;;30.79;58.46
9415;BME280;4746;35.664;139.738;2023-07-02T13:11:38;99697.81;;;30.72;58.96
9415;BME280;4746;35.664;139.738;2023-07-02T13:14:05;99704.78;;;30.73;59.10